createdAt,value
2022-12-03T00:00:00.320Z,6.90
2022-12-03T00:02:27.626Z,6.80
2022-12-03T00:04:55.282Z,7.50
2022-12-03T00:07:22.752Z,6.90
2022-12-03T00:09:49.974Z,6.90
2022-12-03T00:12:17.902Z,6.90
2022-12-03T00:14:45.207Z,6.90
2022-12-03T00:17:12.417Z,6.90
2022-12-03T00:19:39.651Z,6.90
2022-12-03T00:22:06.846Z,6.80
2022-12-03T00:24:34.182Z,6.90
2022-12-03T00:27:01.488Z,6.80
2022-12-03T00:29:29.265Z,6.90
2022-12-03T00:31:56.609Z,6.90
2022-12-03T00:34:23.837Z,6.90
2022-12-03T00:36:51.059Z,6.80
2022-12-03T00:39:18.311Z,7.30
2022-12-03T00:41:45.673Z,6.90
2022-12-03T00:44:12.892Z,7.60
2022-12-03T00:46:40.177Z,6.80
2022-12-03T00:49:07.456Z,7.10
2022-12-03T00:51:35.843Z,6.80
2022-12-03T00:54:03.241Z,6.70
2022-12-03T00:56:30.567Z,6.80
2022-12-03T00:58:57.776Z,6.90
2022-12-03T01:01:25.029Z,6.90
2022-12-03T01:03:52.314Z,6.90
2022-12-03T01:06:19.589Z,6.80
2022-12-03T01:08:46.805Z,6.90
2022-12-03T01:11:32.401Z,6.80
2022-12-03T01:13:59.620Z,6.90
2022-12-03T01:16:26.949Z,6.80
2022-12-03T01:18:54.340Z,6.80
2022-12-03T01:21:21.664Z,6.90
2022-12-03T01:23:48.926Z,6.70
2022-12-03T01:26:17.326Z,6.70
2022-12-03T01:28:44.643Z,6.70
2022-12-03T01:31:30.785Z,6.60
2022-12-03T01:33:58.170Z,6.70
2022-12-03T01:36:25.496Z,6.70
2022-12-03T01:38:52.750Z,6.70
2022-12-03T01:41:21.884Z,6.80
2022-12-03T01:43:51.219Z,6.70
2022-12-03T01:46:22.261Z,6.80
2022-12-03T01:48:52.357Z,6.80
2022-12-03T01:51:20.043Z,6.80
2022-12-03T01:53:47.794Z,7.00
2022-12-03T01:56:16.847Z,6.60
2022-12-03T01:58:45.422Z,6.70
2022-12-03T02:01:15.575Z,6.60
2022-12-03T02:03:44.140Z,7.00
2022-12-03T02:06:18.231Z,6.60
2022-12-03T02:08:46.491Z,6.60
2022-12-03T02:11:25.665Z,6.60
2022-12-03T02:13:57.075Z,6.60
2022-12-03T02:16:24.544Z,7.60
2022-12-03T02:18:51.971Z,7.60
2022-12-03T02:21:22.640Z,6.60
2022-12-03T02:24:19.758Z,7.80
2022-12-03T02:26:47.031Z,6.60
2022-12-03T02:29:14.458Z,6.70
2022-12-03T02:31:42.978Z,7.00
2022-12-03T02:34:11.635Z,6.60
2022-12-03T02:36:39.683Z,6.60
2022-12-03T02:39:07.282Z,6.60
2022-12-03T02:41:53.113Z,6.60
2022-12-03T02:44:20.348Z,6.60
2022-12-03T02:46:47.618Z,6.70
2022-12-03T02:49:14.993Z,6.50
2022-12-03T02:51:42.316Z,6.60
2022-12-03T02:54:09.614Z,6.40
2022-12-03T02:56:37.071Z,6.60
2022-12-03T02:59:05.685Z,6.50
2022-12-03T03:01:34.913Z,6.60
2022-12-03T03:04:03.244Z,6.60
2022-12-03T03:06:30.751Z,6.60
2022-12-03T03:08:58.092Z,6.60
2022-12-03T03:11:25.591Z,6.50
2022-12-03T03:13:52.879Z,6.50
2022-12-03T03:16:20.275Z,6.70
2022-12-03T03:18:48.592Z,6.60
2022-12-03T03:21:15.980Z,6.70
2022-12-03T03:23:43.312Z,6.50
2022-12-03T03:26:13.570Z,6.50
2022-12-03T03:28:44.767Z,6.50
2022-12-03T03:31:14.003Z,6.70
2022-12-03T03:33:43.231Z,6.60
2022-12-03T03:36:11.136Z,6.70
2022-12-03T03:38:39.076Z,6.30
2022-12-03T03:41:07.687Z,6.50
2022-12-03T03:43:37.021Z,6.60
2022-12-03T03:46:05.564Z,6.50
2022-12-03T03:48:34.599Z,6.60
2022-12-03T03:51:04.241Z,6.70
2022-12-03T03:53:31.524Z,6.60
2022-12-03T03:55:58.856Z,6.60
2022-12-03T03:58:26.279Z,6.50
2022-12-03T04:00:53.728Z,6.60
2022-12-03T04:03:21.000Z,6.70
2022-12-03T04:05:50.923Z,6.60
2022-12-03T04:08:18.320Z,7.50
2022-12-03T04:11:04.214Z,6.50
2022-12-03T04:13:31.491Z,4.90
2022-12-03T04:15:58.770Z,6.60
2022-12-03T04:18:44.204Z,6.60
2022-12-03T04:21:36.327Z,6.60
2022-12-03T04:24:04.620Z,6.60
2022-12-03T04:26:50.756Z,6.60
2022-12-03T04:29:19.626Z,6.70
2022-12-03T04:32:05.850Z,6.90
2022-12-03T04:34:52.509Z,6.50
2022-12-03T04:37:20.357Z,6.50
2022-12-03T04:39:47.932Z,6.50
2022-12-03T04:42:15.224Z,6.50
2022-12-03T04:44:42.856Z,6.50
2022-12-03T04:47:14.205Z,6.50
2022-12-03T04:49:44.561Z,6.50
2022-12-03T04:52:13.820Z,6.60
2022-12-03T04:54:41.660Z,6.80
2022-12-03T04:57:09.961Z,6.60
2022-12-03T04:59:38.052Z,6.50
2022-12-03T05:02:06.639Z,6.50
2022-12-03T05:04:33.971Z,6.50
2022-12-03T05:07:01.306Z,6.50
2022-12-03T05:09:28.865Z,6.20
2022-12-03T05:12:02.578Z,6.50
2022-12-03T05:14:56.388Z,6.50
2022-12-03T05:17:30.363Z,6.80
2022-12-03T05:20:16.356Z,6.50
2022-12-03T05:22:44.047Z,6.40
2022-12-03T05:25:11.437Z,6.50
2022-12-03T05:27:40.365Z,6.40
2022-12-03T05:30:08.285Z,6.50
2022-12-03T05:32:35.558Z,6.30
2022-12-03T05:35:02.889Z,6.50
2022-12-03T05:37:30.072Z,6.80
2022-12-03T05:39:57.287Z,6.60
2022-12-03T05:42:43.113Z,6.40
2022-12-03T05:45:10.692Z,6.50
2022-12-03T05:47:37.924Z,6.40
2022-12-03T05:50:05.861Z,6.30
2022-12-03T05:52:33.201Z,6.50
2022-12-03T05:55:00.501Z,6.50
2022-12-03T05:57:29.318Z,6.40
2022-12-03T05:59:56.598Z,6.50
2022-12-03T06:02:23.995Z,6.50
2022-12-03T06:04:51.742Z,6.50
2022-12-03T06:07:19.170Z,6.50
2022-12-03T06:09:46.425Z,6.70
2022-12-03T06:12:13.743Z,6.50
2022-12-03T06:14:41.037Z,6.60
2022-12-03T06:17:08.361Z,6.70
2022-12-03T06:19:35.883Z,6.60
2022-12-03T06:22:03.105Z,6.50
2022-12-03T06:24:30.448Z,6.50
2022-12-03T06:26:58.801Z,6.50
2022-12-03T06:29:26.095Z,6.60
2022-12-03T06:31:53.399Z,6.60
2022-12-03T06:34:20.613Z,6.60
2022-12-03T06:36:49.985Z,6.70
2022-12-03T06:39:18.097Z,6.70
2022-12-03T06:41:45.382Z,7.10
2022-12-03T06:44:13.405Z,6.60
2022-12-03T06:46:40.955Z,6.60
2022-12-03T06:49:11.281Z,6.90
2022-12-03T06:51:38.565Z,6.60
2022-12-03T06:54:06.156Z,6.60
2022-12-03T06:56:37.858Z,6.70
2022-12-03T06:59:09.005Z,6.50
2022-12-03T07:01:36.355Z,6.50
2022-12-03T07:04:03.701Z,6.80
2022-12-03T07:06:30.915Z,6.50
2022-12-03T07:08:58.288Z,6.60
2022-12-03T07:11:31.363Z,6.50
2022-12-03T07:14:05.429Z,6.80
2022-12-03T07:16:34.514Z,6.70
2022-12-03T07:19:02.680Z,6.80
2022-12-03T07:21:29.972Z,6.50
2022-12-03T07:23:57.305Z,6.60
2022-12-03T07:26:24.587Z,6.60
2022-12-03T07:28:51.913Z,6.60
2022-12-03T07:31:19.375Z,6.80
2022-12-03T07:33:46.780Z,6.60
2022-12-03T07:36:14.245Z,6.40
2022-12-03T07:38:41.529Z,6.40
2022-12-03T07:41:08.813Z,6.60
2022-12-03T07:43:36.065Z,6.60
2022-12-03T07:46:03.460Z,7.00
2022-12-03T07:48:30.668Z,6.50
2022-12-03T07:50:58.924Z,6.50
2022-12-03T07:53:26.129Z,6.60
2022-12-03T07:55:53.408Z,6.40
2022-12-03T07:58:20.738Z,6.50
2022-12-03T08:00:48.033Z,6.50
2022-12-03T08:03:15.375Z,6.50
2022-12-03T08:05:42.625Z,6.50
2022-12-03T08:08:09.878Z,6.40
2022-12-03T08:10:37.169Z,6.60
2022-12-03T08:13:10.725Z,6.80
2022-12-03T08:15:39.694Z,6.60
2022-12-03T08:18:19.227Z,6.60
2022-12-03T08:20:48.785Z,6.60
2022-12-03T08:23:18.789Z,6.60
2022-12-03T08:25:46.728Z,6.60
2022-12-03T08:28:27.045Z,6.50
2022-12-03T08:31:28.011Z,6.60
2022-12-03T08:34:31.721Z,6.60
2022-12-03T08:37:05.804Z,6.70
2022-12-03T08:39:48.562Z,6.70
2022-12-03T08:42:40.482Z,6.60
2022-12-03T08:45:27.872Z,6.50
2022-12-03T08:48:00.265Z,6.70
2022-12-03T08:50:39.303Z,6.70
2022-12-03T08:53:35.651Z,6.60
2022-12-03T08:56:18.595Z,6.80
2022-12-03T08:58:48.397Z,6.80
2022-12-03T09:01:27.389Z,7.00
2022-12-03T09:03:56.079Z,6.70
2022-12-03T09:06:23.440Z,6.90
2022-12-03T09:08:50.672Z,7.20
2022-12-03T09:11:17.917Z,7.30
2022-12-03T09:13:45.220Z,6.90
2022-12-03T09:16:12.625Z,6.80
2022-12-03T09:18:39.879Z,6.90
2022-12-03T09:21:07.103Z,7.20
2022-12-03T09:23:34.558Z,7.10
2022-12-03T09:26:01.986Z,6.90
2022-12-03T09:28:29.218Z,7.60
2022-12-03T09:30:56.473Z,7.20
2022-12-03T09:33:23.736Z,7.10
2022-12-03T09:35:50.953Z,7.30
2022-12-03T09:38:18.282Z,7.30
2022-12-03T09:40:45.702Z,8.00
2022-12-03T09:43:13.040Z,7.30
2022-12-03T09:45:40.385Z,7.40
2022-12-03T09:48:07.786Z,7.30
2022-12-03T09:50:38.158Z,7.40
2022-12-03T09:53:05.460Z,7.50
2022-12-03T09:55:32.763Z,7.40
2022-12-03T09:58:00.733Z,7.50
2022-12-03T10:00:30.200Z,7.50
2022-12-03T10:03:01.822Z,7.50
2022-12-03T10:05:29.669Z,7.60
2022-12-03T10:08:06.807Z,7.50
2022-12-03T10:10:34.584Z,7.60
2022-12-03T10:13:02.490Z,7.90
2022-12-03T10:15:29.843Z,7.70
2022-12-03T10:17:58.349Z,7.70
2022-12-03T10:20:26.388Z,7.80
2022-12-03T10:22:53.634Z,7.80
2022-12-03T10:25:22.964Z,7.80
2022-12-03T10:28:01.230Z,7.80
2022-12-03T10:30:29.125Z,7.80
2022-12-03T10:32:58.571Z,7.80
2022-12-03T10:35:38.770Z,7.90
2022-12-03T10:38:09.426Z,7.80
2022-12-03T10:40:39.066Z,7.90
2022-12-03T10:43:13.530Z,8.00
2022-12-03T10:45:41.480Z,7.70
2022-12-03T10:48:19.652Z,7.80
2022-12-03T10:50:53.261Z,7.80
2022-12-03T10:53:32.286Z,7.90
2022-12-03T10:56:02.837Z,7.90
2022-12-03T10:58:34.107Z,7.80
2022-12-03T11:01:03.828Z,7.80
2022-12-03T11:03:35.433Z,7.80
2022-12-03T11:06:04.026Z,7.90
2022-12-03T11:08:35.346Z,8.00
2022-12-03T11:11:06.141Z,8.10
2022-12-03T11:13:33.444Z,8.20
2022-12-03T11:16:03.083Z,8.40
2022-12-03T11:18:36.252Z,8.30
2022-12-03T11:21:05.864Z,8.40
2022-12-03T11:23:58.840Z,8.50
2022-12-03T11:26:29.172Z,8.40
2022-12-03T11:28:58.306Z,8.60
2022-12-03T11:31:42.327Z,8.50
2022-12-03T11:34:18.944Z,8.70
2022-12-03T11:37:11.372Z,8.70
2022-12-03T11:39:59.809Z,8.60
2022-12-03T11:42:27.079Z,8.60
2022-12-03T11:45:06.424Z,8.60
2022-12-03T11:47:58.368Z,8.60
2022-12-03T11:50:39.071Z,8.70
2022-12-03T11:53:25.971Z,8.60
2022-12-03T11:56:12.945Z,8.60
2022-12-03T11:58:43.650Z,8.60
2022-12-03T12:01:11.833Z,8.60
2022-12-03T12:03:48.381Z,8.60
2022-12-03T12:06:18.560Z,8.80
2022-12-03T12:08:51.865Z,8.60
2022-12-03T12:11:33.885Z,8.40
2022-12-03T12:14:12.092Z,8.30
2022-12-03T12:16:52.756Z,8.40
2022-12-03T12:19:31.959Z,8.40
2022-12-03T12:22:29.408Z,8.30
2022-12-03T12:25:25.474Z,8.30
2022-12-03T12:27:53.854Z,8.30
2022-12-03T12:30:22.510Z,8.20
2022-12-03T12:32:52.152Z,8.30
2022-12-03T12:35:24.571Z,8.50
2022-12-03T12:37:59.621Z,8.20
2022-12-03T12:40:32.350Z,8.30
2022-12-03T12:43:11.796Z,8.30
2022-12-03T12:45:42.944Z,8.20
2022-12-03T12:48:10.238Z,8.30
2022-12-03T12:50:38.683Z,9.30
2022-12-03T12:53:17.844Z,8.40
2022-12-03T12:55:45.321Z,8.80
2022-12-03T12:58:16.523Z,8.50
2022-12-03T13:00:48.653Z,8.50
2022-12-03T13:03:18.713Z,8.60
2022-12-03T13:05:48.868Z,8.50
2022-12-03T13:08:21.373Z,9.30
2022-12-03T13:10:49.720Z,8.50
2022-12-03T13:13:23.301Z,8.60
2022-12-03T13:15:57.958Z,8.60
2022-12-03T13:18:32.524Z,8.50
2022-12-03T13:21:06.673Z,8.60
2022-12-03T13:23:35.461Z,8.60
2022-12-03T13:26:28.520Z,8.50
2022-12-03T13:29:02.549Z,8.50
2022-12-03T13:31:39.462Z,8.40
2022-12-03T13:34:20.753Z,8.30
2022-12-03T13:36:55.415Z,8.30
2022-12-03T13:39:35.531Z,8.30
2022-12-03T13:42:33.271Z,8.30
2022-12-03T13:45:02.062Z,8.30
2022-12-03T13:47:29.322Z,8.20
2022-12-03T13:50:04.147Z,8.30
2022-12-03T13:52:34.695Z,8.30
2022-12-03T13:55:03.414Z,8.30
2022-12-03T13:57:30.654Z,8.20
2022-12-03T13:59:57.884Z,8.20
2022-12-03T14:02:25.242Z,7.90
2022-12-03T14:04:56.934Z,8.10
2022-12-03T14:07:27.480Z,8.10
2022-12-03T14:09:55.208Z,8.00
2022-12-03T14:12:25.737Z,8.10
2022-12-03T14:14:53.713Z,8.30
2022-12-03T14:17:21.084Z,7.70
2022-12-03T14:19:48.470Z,8.00
2022-12-03T14:22:15.873Z,8.00
2022-12-03T14:24:43.210Z,8.00
2022-12-03T14:27:10.485Z,8.00
2022-12-03T14:29:37.756Z,8.00
2022-12-03T14:32:05.081Z,8.70
2022-12-03T14:34:32.363Z,8.10
2022-12-03T14:36:59.757Z,8.00
2022-12-03T14:39:27.109Z,8.10
2022-12-03T14:42:12.817Z,8.00
2022-12-03T14:44:45.269Z,8.40
2022-12-03T14:47:14.889Z,7.90
2022-12-03T14:49:42.427Z,8.10
2022-12-03T14:52:12.522Z,7.90
2022-12-03T14:54:44.258Z,7.90
2022-12-03T14:57:13.102Z,8.10
2022-12-03T14:59:41.925Z,7.80
2022-12-03T15:02:10.579Z,8.00
2022-12-03T15:04:38.898Z,8.70
2022-12-03T15:07:06.763Z,8.00
2022-12-03T15:09:34.529Z,8.00
2022-12-03T15:12:04.085Z,7.80
2022-12-03T15:14:31.439Z,7.90
2022-12-03T15:16:58.912Z,7.80
2022-12-03T15:19:26.386Z,7.70
2022-12-03T15:21:53.749Z,7.80
2022-12-03T15:24:21.170Z,8.70
2022-12-03T15:26:49.476Z,8.30
2022-12-03T15:29:16.801Z,7.80
2022-12-03T15:31:44.555Z,7.70
2022-12-03T15:34:11.898Z,7.70
2022-12-03T15:36:39.123Z,8.00
2022-12-03T15:39:06.456Z,8.30
2022-12-03T15:41:33.920Z,7.80
2022-12-03T15:44:02.129Z,7.90
2022-12-03T15:46:31.534Z,7.70
2022-12-03T15:48:59.420Z,7.70
2022-12-03T15:51:26.696Z,7.60
2022-12-03T15:53:53.951Z,7.60
2022-12-03T15:56:21.307Z,7.70
2022-12-03T15:58:48.529Z,7.70
2022-12-03T16:01:18.244Z,7.80
2022-12-03T16:03:45.858Z,7.70
2022-12-03T16:06:14.642Z,7.70
2022-12-03T16:08:41.979Z,7.70
2022-12-03T16:11:09.239Z,7.80
2022-12-03T16:13:36.447Z,7.50
2022-12-03T16:16:03.908Z,7.90
2022-12-03T16:18:32.138Z,7.60
2022-12-03T16:20:59.476Z,7.50
2022-12-03T16:23:26.939Z,7.50
2022-12-03T16:25:54.225Z,7.80
2022-12-03T16:28:21.450Z,7.50
2022-12-03T16:30:48.768Z,7.50
2022-12-03T16:33:16.062Z,7.40
2022-12-03T16:35:43.400Z,7.80
2022-12-03T16:38:10.839Z,7.60
2022-12-03T16:40:38.117Z,7.60
2022-12-03T16:43:05.330Z,7.80
2022-12-03T16:45:55.888Z,8.20
2022-12-03T16:48:23.258Z,7.50
2022-12-03T16:50:50.605Z,8.00
2022-12-03T16:53:17.838Z,7.50
2022-12-03T16:55:45.074Z,7.50
2022-12-03T16:58:12.368Z,7.40
2022-12-03T17:00:39.615Z,7.40
2022-12-03T17:03:06.940Z,7.50
2022-12-03T17:05:34.353Z,7.50
2022-12-03T17:08:01.705Z,7.80
2022-12-03T17:10:29.205Z,7.70
2022-12-03T17:13:11.730Z,7.60
2022-12-03T17:15:40.295Z,8.20
2022-12-03T17:18:08.566Z,7.50
2022-12-03T17:20:36.551Z,7.50
2022-12-03T17:23:04.190Z,7.40
2022-12-03T17:25:31.603Z,7.60
2022-12-03T17:27:58.919Z,7.40
2022-12-03T17:30:26.287Z,7.50
2022-12-03T17:32:53.785Z,7.60
2022-12-03T17:35:21.145Z,7.60
2022-12-03T17:37:48.466Z,7.70
2022-12-03T17:40:17.242Z,7.70
2022-12-03T17:42:44.605Z,7.50
2022-12-03T17:45:12.481Z,7.60
2022-12-03T17:47:40.026Z,7.70
2022-12-03T17:50:08.226Z,7.70
2022-12-03T17:52:35.442Z,7.50
2022-12-03T17:55:11.699Z,7.30
2022-12-03T17:57:40.310Z,7.30
2022-12-03T18:00:08.312Z,7.40
2022-12-03T18:02:42.525Z,7.50
2022-12-03T18:05:09.997Z,7.40
2022-12-03T18:07:37.235Z,7.60
2022-12-03T18:10:05.239Z,7.30
2022-12-03T18:12:33.173Z,7.40
2022-12-03T18:15:00.388Z,7.30
2022-12-03T18:17:27.652Z,7.30
2022-12-03T18:19:55.220Z,7.10
2022-12-03T18:22:22.612Z,7.30
2022-12-03T18:24:51.968Z,7.40
2022-12-03T18:27:22.991Z,7.20
2022-12-03T18:29:50.381Z,7.20
2022-12-03T18:32:28.791Z,7.20
2022-12-03T18:34:57.593Z,7.40
2022-12-03T18:37:27.835Z,7.20
2022-12-03T18:39:56.285Z,7.20
2022-12-03T18:42:24.050Z,7.30
2022-12-03T18:44:53.510Z,7.10
2022-12-03T18:47:27.099Z,7.10
2022-12-03T18:49:55.183Z,7.20
2022-12-03T18:52:24.891Z,7.10
2022-12-03T18:54:52.596Z,7.10
2022-12-03T18:57:19.864Z,7.10
2022-12-03T18:59:47.489Z,7.10
2022-12-03T19:05:08.979Z,7.10
2022-12-03T19:07:36.363Z,7.00
2022-12-03T19:10:04.344Z,7.00
2022-12-03T19:12:32.166Z,7.00
2022-12-03T19:14:59.412Z,7.00
2022-12-03T19:17:27.302Z,7.00
2022-12-03T19:19:55.326Z,6.90
2022-12-03T19:22:23.859Z,6.90
2022-12-03T19:24:51.101Z,6.90
2022-12-03T19:27:19.140Z,6.80
2022-12-03T19:29:49.700Z,6.80
2022-12-03T19:32:17.061Z,6.90
2022-12-03T19:34:44.343Z,6.70
2022-12-03T19:37:11.572Z,6.70
2022-12-03T19:39:38.819Z,6.90
2022-12-03T19:42:06.123Z,6.80
2022-12-03T19:44:33.832Z,6.90
2022-12-03T19:47:01.068Z,6.90
2022-12-03T19:49:28.328Z,6.80
2022-12-03T19:51:55.529Z,6.90
2022-12-03T19:54:23.972Z,6.90
2022-12-03T19:56:51.229Z,6.80
2022-12-03T19:59:18.485Z,6.90
2022-12-03T20:01:45.925Z,6.80
2022-12-03T20:04:13.683Z,6.80
2022-12-03T20:06:41.025Z,6.90
2022-12-03T20:09:15.324Z,6.80
2022-12-03T20:11:44.416Z,6.90
2022-12-03T20:14:14.858Z,6.70
2022-12-03T20:16:42.607Z,6.90
2022-12-03T20:19:12.324Z,6.80
2022-12-03T20:21:40.145Z,6.80
2022-12-03T20:24:08.553Z,6.80
2022-12-03T20:26:35.855Z,7.00
2022-12-03T20:29:03.207Z,6.80
2022-12-03T20:31:31.703Z,6.90
2022-12-03T20:34:02.078Z,6.80
2022-12-03T20:36:30.938Z,7.20
2022-12-03T20:39:01.035Z,6.70
2022-12-03T20:41:28.745Z,6.70
2022-12-03T20:43:55.998Z,6.80
2022-12-03T20:46:29.285Z,6.70
2022-12-03T20:48:57.826Z,6.70
2022-12-03T20:51:28.071Z,6.60
2022-12-03T20:53:56.703Z,7.10
2022-12-03T20:56:31.285Z,6.50
2022-12-03T20:59:04.853Z,6.60
2022-12-03T21:01:33.006Z,6.50
2022-12-03T21:04:00.348Z,6.50
2022-12-03T21:06:29.812Z,6.30
2022-12-03T21:08:58.904Z,6.40
2022-12-03T21:11:29.671Z,7.40
2022-12-03T21:13:58.052Z,6.40
2022-12-03T21:17:05.920Z,6.20
2022-12-03T21:19:20.316Z,6.40
2022-12-03T21:21:47.667Z,6.40
2022-12-03T21:24:14.972Z,6.30
2022-12-03T21:26:42.255Z,6.30
2022-12-03T21:29:09.613Z,6.30
2022-12-03T21:31:38.337Z,6.10
2022-12-03T21:34:05.914Z,6.40
2022-12-03T21:36:33.315Z,6.20
2022-12-03T21:39:00.716Z,6.30
2022-12-03T21:41:28.155Z,6.00
2022-12-03T21:43:55.452Z,6.10
2022-12-03T21:47:11.511Z,6.00
2022-12-03T21:49:10.032Z,6.00
2022-12-03T21:51:37.563Z,6.10
2022-12-03T21:54:04.923Z,6.00
2022-12-03T21:56:32.979Z,6.00
2022-12-03T21:59:00.176Z,5.80
2022-12-03T22:01:27.528Z,6.00
2022-12-03T22:03:54.872Z,6.00
2022-12-03T22:06:22.961Z,6.00
2022-12-03T22:08:50.320Z,6.00
2022-12-03T22:11:20.740Z,5.90
2022-12-03T22:13:48.433Z,6.10
2022-12-03T22:16:18.259Z,6.00
2022-12-03T22:18:46.131Z,6.30
2022-12-03T22:21:16.030Z,6.10
2022-12-03T22:23:43.681Z,6.10
2022-12-03T22:26:13.524Z,6.10
2022-12-03T22:28:45.717Z,6.00
2022-12-03T22:31:13.476Z,6.10
2022-12-03T22:33:41.523Z,6.20
2022-12-03T22:36:16.424Z,5.90
2022-12-03T22:38:48.104Z,6.00
2022-12-03T22:41:15.971Z,6.10
2022-12-03T22:43:43.347Z,6.20
2022-12-03T22:46:12.535Z,6.20
2022-12-03T22:48:41.774Z,6.30
2022-12-03T22:51:14.437Z,6.30
2022-12-03T22:53:41.732Z,6.30
2022-12-03T22:56:09.523Z,6.30
2022-12-03T22:58:38.880Z,6.40
2022-12-03T23:01:06.993Z,6.30
2022-12-03T23:03:34.288Z,6.40
2022-12-03T23:06:01.644Z,6.30
2022-12-03T23:08:28.899Z,6.40
2022-12-03T23:11:00.581Z,6.60
2022-12-03T23:13:27.848Z,6.30
2022-12-03T23:15:55.167Z,6.30
2022-12-03T23:18:22.760Z,6.30
2022-12-03T23:20:52.820Z,6.30
2022-12-03T23:23:21.109Z,6.30
2022-12-03T23:26:07.553Z,6.30
2022-12-03T23:28:36.639Z,6.30
2022-12-03T23:31:05.192Z,6.30
2022-12-03T23:33:38.021Z,6.30
2022-12-03T23:36:06.634Z,6.30
2022-12-03T23:38:34.052Z,6.40
2022-12-03T23:41:14.247Z,6.30
2022-12-03T23:43:42.406Z,6.30
2022-12-03T23:46:13.817Z,6.40
2022-12-03T23:48:41.591Z,6.30
2022-12-03T23:51:14.983Z,6.40
2022-12-03T23:53:42.431Z,6.40
2022-12-03T23:56:15.357Z,6.30
2022-12-03T23:58:43.029Z,6.40
